sensor_id;sensor_type;location;lat;lon;timestamp;P1;durP1;ratioP1;P2;durP2;ratioP2
46318;SDS011;32042;50.916;2.926;2023-06-04T00:00:02;3.67;;;2.20;;
46318;SDS011;32042;50.916;2.926;2023-06-04T00:02:28;7.73;;;2.00;;
46318;SDS011;32042;50.916;2.926;2023-06-04T00:04:54;5.10;;;2.00;;
46318;SDS011;32042;50.916;2.926;2023-06-04T00:07:20;4.83;;;2.17;;
46318;SDS011;32042;50.916;2.926;2023-06-04T00:09:45;7.07;;;2.43;;
46318;SDS011;32042;50.916;2.926;2023-06-04T00:12:12;7.07;;;2.43;;
46318;SDS011;32042;50.916;2.926;2023-06-04T00:14:38;3.47;;;1.90;;
46318;SDS011;32042;50.916;2.926;2023-06-04T00:17:04;5.03;;;2.03;;
46318;SDS011;32042;50.916;2.926;2023-06-04T00:19:30;3.80;;;1.80;;
46318;SDS011;32042;50.916;2.926;2023-06-04T00:21:56;5.80;;;1.93;;
46318;SDS011;32042;50.916;2.926;2023-06-04T00:24:21;4.97;;;2.30;;
46318;SDS011;32042;50.916;2.926;2023-06-04T00:26:47;5.03;;;2.23;;
46318;SDS011;32042;50.916;2.926;2023-06-04T00:29:13;2.57;;;1.97;;
46318;SDS011;32042;50.916;2.926;2023-06-04T00:31:39;4.63;;;2.27;;
46318;SDS011;32042;50.916;2.926;2023-06-04T00:34:04;2.73;;;2.10;;
46318;SDS011;32042;50.916;2.926;2023-06-04T00:36:30;5.23;;;2.20;;
46318;SDS011;32042;50.916;2.926;2023-06-04T00:38:56;5.67;;;2.07;;
46318;SDS011;32042;50.916;2.926;2023-06-04T00:41:22;3.07;;;2.00;;
46318;SDS011;32042;50.916;2.926;2023-06-04T00:43:48;4.37;;;2.00;;
46318;SDS011;32042;50.916;2.926;2023-06-04T00:46:27;3.07;;;2.23;;
46318;SDS011;32042;50.916;2.926;2023-06-04T00:48:53;6.57;;;2.13;;
46318;SDS011;32042;50.916;2.926;2023-06-04T00:51:20;5.13;;;2.07;;
46318;SDS011;32042;50.916;2.926;2023-06-04T00:53:47;5.60;;;2.23;;
46318;SDS011;32042;50.916;2.926;2023-06-04T00:56:14;7.73;;;2.57;;
46318;SDS011;32042;50.916;2.926;2023-06-04T00:58:40;3.20;;;1.90;;
46318;SDS011;32042;50.916;2.926;2023-06-04T01:01:10;2.93;;;2.00;;
46318;SDS011;32042;50.916;2.926;2023-06-04T01:03:59;4.57;;;2.03;;
46318;SDS011;32042;50.916;2.926;2023-06-04T01:06:47;5.80;;;2.33;;
46318;SDS011;32042;50.916;2.926;2023-06-04T01:09:15;3.13;;;2.00;;
46318;SDS011;32042;50.916;2.926;2023-06-04T01:11:41;7.90;;;1.97;;
46318;SDS011;32042;50.916;2.926;2023-06-04T01:14:07;2.90;;;2.60;;
46318;SDS011;32042;50.916;2.926;2023-06-04T01:16:36;2.50;;;2.20;;
46318;SDS011;32042;50.916;2.926;2023-06-04T01:20:16;3.73;;;2.30;;
46318;SDS011;32042;50.916;2.926;2023-06-04T01:23:08;4.70;;;2.20;;
46318;SDS011;32042;50.916;2.926;2023-06-04T01:25:03;5.83;;;2.70;;
46318;SDS011;32042;50.916;2.926;2023-06-04T01:27:34;4.07;;;2.17;;
46318;SDS011;32042;50.916;2.926;2023-06-04T01:30:01;2.50;;;2.30;;
46318;SDS011;32042;50.916;2.926;2023-06-04T01:32:28;3.63;;;2.70;;
46318;SDS011;32042;50.916;2.926;2023-06-04T01:34:55;5.67;;;2.10;;
46318;SDS011;32042;50.916;2.926;2023-06-04T01:37:20;5.57;;;2.53;;
46318;SDS011;32042;50.916;2.926;2023-06-04T01:39:46;3.60;;;2.27;;
46318;SDS011;32042;50.916;2.926;2023-06-04T01:42:12;4.77;;;2.60;;
46318;SDS011;32042;50.916;2.926;2023-06-04T01:44:38;3.50;;;2.60;;
46318;SDS011;32042;50.916;2.926;2023-06-04T01:47:03;6.17;;;2.43;;
46318;SDS011;32042;50.916;2.926;2023-06-04T01:49:29;2.80;;;2.17;;
46318;SDS011;32042;50.916;2.926;2023-06-04T01:51:55;4.37;;;2.40;;
46318;SDS011;32042;50.916;2.926;2023-06-04T01:54:21;4.53;;;2.50;;
46318;SDS011;32042;50.916;2.926;2023-06-04T01:56:47;5.70;;;2.30;;
46318;SDS011;32042;50.916;2.926;2023-06-04T01:59:13;3.00;;;2.53;;
46318;SDS011;32042;50.916;2.926;2023-06-04T02:01:41;2.87;;;2.10;;
46318;SDS011;32042;50.916;2.926;2023-06-04T02:04:07;3.60;;;2.40;;
46318;SDS011;32042;50.916;2.926;2023-06-04T02:06:32;3.47;;;1.70;;
46318;SDS011;32042;50.916;2.926;2023-06-04T02:08:58;2.30;;;2.10;;
46318;SDS011;32042;50.916;2.926;2023-06-04T02:11:25;4.23;;;2.23;;
46318;SDS011;32042;50.916;2.926;2023-06-04T02:13:51;2.37;;;1.87;;
46318;SDS011;32042;50.916;2.926;2023-06-04T02:16:17;2.20;;;2.00;;
46318;SDS011;32042;50.916;2.926;2023-06-04T02:18:42;2.67;;;2.33;;
46318;SDS011;32042;50.916;2.926;2023-06-04T02:21:08;2.67;;;2.03;;
46318;SDS011;32042;50.916;2.926;2023-06-04T02:23:34;7.80;;;2.00;;
46318;SDS011;32042;50.916;2.926;2023-06-04T02:25:59;3.80;;;2.13;;
46318;SDS011;32042;50.916;2.926;2023-06-04T02:28:25;6.50;;;2.50;;
46318;SDS011;32042;50.916;2.926;2023-06-04T02:30:51;2.23;;;1.83;;
46318;SDS011;32042;50.916;2.926;2023-06-04T02:33:18;2.67;;;1.83;;
46318;SDS011;32042;50.916;2.926;2023-06-04T02:35:46;4.27;;;1.80;;
46318;SDS011;32042;50.916;2.926;2023-06-04T02:38:12;3.00;;;1.93;;
46318;SDS011;32042;50.916;2.926;2023-06-04T02:40:39;3.50;;;2.20;;
46318;SDS011;32042;50.916;2.926;2023-06-04T02:43:07;4.63;;;2.00;;
46318;SDS011;32042;50.916;2.926;2023-06-04T02:45:34;3.40;;;2.10;;
46318;SDS011;32042;50.916;2.926;2023-06-04T02:48:01;4.90;;;2.10;;
46318;SDS011;32042;50.916;2.926;2023-06-04T02:50:28;3.03;;;1.97;;
46318;SDS011;32042;50.916;2.926;2023-06-04T02:52:54;5.23;;;2.50;;
46318;SDS011;32042;50.916;2.926;2023-06-04T02:55:20;2.70;;;1.93;;
46318;SDS011;32042;50.916;2.926;2023-06-04T02:57:46;2.63;;;2.07;;
46318;SDS011;32042;50.916;2.926;2023-06-04T03:00:12;5.10;;;2.60;;
46318;SDS011;32042;50.916;2.926;2023-06-04T03:02:42;5.47;;;2.10;;
46318;SDS011;32042;50.916;2.926;2023-06-04T03:05:12;4.53;;;2.20;;
46318;SDS011;32042;50.916;2.926;2023-06-04T03:07:40;4.57;;;2.50;;
46318;SDS011;32042;50.916;2.926;2023-06-04T03:10:08;4.53;;;1.63;;
46318;SDS011;32042;50.916;2.926;2023-06-04T03:12:35;3.53;;;1.93;;
46318;SDS011;32042;50.916;2.926;2023-06-04T03:15:01;4.10;;;2.20;;
46318;SDS011;32042;50.916;2.926;2023-06-04T03:17:27;2.73;;;2.20;;
46318;SDS011;32042;50.916;2.926;2023-06-04T03:19:53;3.83;;;2.47;;
46318;SDS011;32042;50.916;2.926;2023-06-04T03:22:21;3.53;;;1.87;;
46318;SDS011;32042;50.916;2.926;2023-06-04T03:24:46;4.10;;;2.63;;
46318;SDS011;32042;50.916;2.926;2023-06-04T03:27:12;8.97;;;2.10;;
46318;SDS011;32042;50.916;2.926;2023-06-04T03:29:38;3.23;;;2.43;;
46318;SDS011;32042;50.916;2.926;2023-06-04T03:32:04;4.47;;;2.20;;
46318;SDS011;32042;50.916;2.926;2023-06-04T03:34:30;4.70;;;2.00;;
46318;SDS011;32042;50.916;2.926;2023-06-04T03:36:57;2.70;;;2.00;;
46318;SDS011;32042;50.916;2.926;2023-06-04T03:39:23;4.23;;;2.43;;
46318;SDS011;32042;50.916;2.926;2023-06-04T03:41:49;3.60;;;2.03;;
46318;SDS011;32042;50.916;2.926;2023-06-04T03:44:19;2.47;;;2.07;;
46318;SDS011;32042;50.916;2.926;2023-06-04T03:46:45;3.57;;;2.20;;
46318;SDS011;32042;50.916;2.926;2023-06-04T03:49:10;4.13;;;2.20;;
46318;SDS011;32042;50.916;2.926;2023-06-04T03:51:38;5.23;;;2.00;;
46318;SDS011;32042;50.916;2.926;2023-06-04T03:54:04;2.00;;;1.80;;
46318;SDS011;32042;50.916;2.926;2023-06-04T03:56:30;2.83;;;2.30;;
46318;SDS011;32042;50.916;2.926;2023-06-04T03:58:55;2.77;;;2.10;;
46318;SDS011;32042;50.916;2.926;2023-06-04T04:01:21;5.57;;;2.10;;
46318;SDS011;32042;50.916;2.926;2023-06-04T04:03:48;4.10;;;2.30;;
46318;SDS011;32042;50.916;2.926;2023-06-04T04:06:15;3.10;;;2.00;;
46318;SDS011;32042;50.916;2.926;2023-06-04T04:08:42;6.10;;;2.33;;
46318;SDS011;32042;50.916;2.926;2023-06-04T04:11:09;2.67;;;2.07;;
46318;SDS011;32042;50.916;2.926;2023-06-04T04:13:41;4.43;;;2.40;;
46318;SDS011;32042;50.916;2.926;2023-06-04T04:16:07;4.83;;;2.53;;
46318;SDS011;32042;50.916;2.926;2023-06-04T04:18:33;5.80;;;2.33;;
46318;SDS011;32042;50.916;2.926;2023-06-04T04:21:00;3.27;;;1.90;;
46318;SDS011;32042;50.916;2.926;2023-06-04T04:23:26;5.13;;;2.37;;
46318;SDS011;32042;50.916;2.926;2023-06-04T04:25:52;3.60;;;2.73;;
46318;SDS011;32042;50.916;2.926;2023-06-04T04:28:18;3.27;;;2.43;;
46318;SDS011;32042;50.916;2.926;2023-06-04T04:30:45;2.80;;;2.30;;
46318;SDS011;32042;50.916;2.926;2023-06-04T04:33:11;2.67;;;2.10;;
46318;SDS011;32042;50.916;2.926;2023-06-04T04:35:40;3.53;;;2.43;;
46318;SDS011;32042;50.916;2.926;2023-06-04T04:38:07;3.27;;;2.30;;
46318;SDS011;32042;50.916;2.926;2023-06-04T04:40:33;3.20;;;2.13;;
46318;SDS011;32042;50.916;2.926;2023-06-04T04:42:59;3.73;;;2.20;;
46318;SDS011;32042;50.916;2.926;2023-06-04T04:45:24;4.13;;;2.20;;
46318;SDS011;32042;50.916;2.926;2023-06-04T04:47:50;4.37;;;2.20;;
46318;SDS011;32042;50.916;2.926;2023-06-04T04:50:16;4.30;;;2.57;;
46318;SDS011;32042;50.916;2.926;2023-06-04T04:52:42;3.63;;;2.60;;
46318;SDS011;32042;50.916;2.926;2023-06-04T04:55:08;2.90;;;2.03;;
46318;SDS011;32042;50.916;2.926;2023-06-04T04:57:34;4.00;;;2.10;;
46318;SDS011;32042;50.916;2.926;2023-06-04T05:00:00;4.97;;;2.60;;
46318;SDS011;32042;50.916;2.926;2023-06-04T05:02:30;5.33;;;2.60;;
46318;SDS011;32042;50.916;2.926;2023-06-04T05:04:55;2.80;;;2.50;;
46318;SDS011;32042;50.916;2.926;2023-06-04T05:07:21;4.80;;;2.20;;
46318;SDS011;32042;50.916;2.926;2023-06-04T05:09:48;2.37;;;2.03;;
46318;SDS011;32042;50.916;2.926;2023-06-04T05:12:14;4.20;;;2.63;;
46318;SDS011;32042;50.916;2.926;2023-06-04T05:14:40;3.73;;;2.60;;
46318;SDS011;32042;50.916;2.926;2023-06-04T05:17:06;3.37;;;2.47;;
46318;SDS011;32042;50.916;2.926;2023-06-04T05:19:36;3.93;;;2.43;;
46318;SDS011;32042;50.916;2.926;2023-06-04T05:22:02;3.50;;;2.23;;
46318;SDS011;32042;50.916;2.926;2023-06-04T05:24:28;3.80;;;2.73;;
46318;SDS011;32042;50.916;2.926;2023-06-04T05:26:54;4.87;;;2.97;;
46318;SDS011;32042;50.916;2.926;2023-06-04T05:29:21;4.67;;;2.43;;
46318;SDS011;32042;50.916;2.926;2023-06-04T05:31:48;7.57;;;2.70;;
46318;SDS011;32042;50.916;2.926;2023-06-04T05:34:14;3.27;;;2.37;;
46318;SDS011;32042;50.916;2.926;2023-06-04T05:36:41;4.63;;;2.73;;
46318;SDS011;32042;50.916;2.926;2023-06-04T05:39:08;6.10;;;2.50;;
46318;SDS011;32042;50.916;2.926;2023-06-04T05:41:35;3.83;;;2.73;;
46318;SDS011;32042;50.916;2.926;2023-06-04T05:44:01;3.00;;;2.70;;
46318;SDS011;32042;50.916;2.926;2023-06-04T05:46:27;3.83;;;2.70;;
46318;SDS011;32042;50.916;2.926;2023-06-04T05:48:53;6.33;;;3.00;;
46318;SDS011;32042;50.916;2.926;2023-06-04T05:51:19;3.87;;;3.00;;
46318;SDS011;32042;50.916;2.926;2023-06-04T05:53:45;3.13;;;2.83;;
46318;SDS011;32042;50.916;2.926;2023-06-04T05:56:11;4.87;;;2.70;;
46318;SDS011;32042;50.916;2.926;2023-06-04T05:58:37;2.60;;;2.40;;
46318;SDS011;32042;50.916;2.926;2023-06-04T06:01:03;5.47;;;2.83;;
46318;SDS011;32042;50.916;2.926;2023-06-04T06:03:29;8.13;;;3.37;;
46318;SDS011;32042;50.916;2.926;2023-06-04T06:05:55;4.40;;;3.13;;
46318;SDS011;32042;50.916;2.926;2023-06-04T06:08:22;4.20;;;2.87;;
46318;SDS011;32042;50.916;2.926;2023-06-04T06:10:47;4.50;;;2.60;;
46318;SDS011;32042;50.916;2.926;2023-06-04T06:13:13;8.00;;;2.87;;
46318;SDS011;32042;50.916;2.926;2023-06-04T06:15:40;2.90;;;2.57;;
46318;SDS011;32042;50.916;2.926;2023-06-04T06:18:05;6.10;;;3.00;;
46318;SDS011;32042;50.916;2.926;2023-06-04T06:20:31;3.63;;;2.50;;
46318;SDS011;32042;50.916;2.926;2023-06-04T06:22:57;3.47;;;2.70;;
46318;SDS011;32042;50.916;2.926;2023-06-04T06:25:30;3.40;;;2.40;;
46318;SDS011;32042;50.916;2.926;2023-06-04T06:27:56;3.40;;;2.40;;
46318;SDS011;32042;50.916;2.926;2023-06-04T06:30:21;4.43;;;2.57;;
46318;SDS011;32042;50.916;2.926;2023-06-04T06:32:47;3.90;;;2.60;;
46318;SDS011;32042;50.916;2.926;2023-06-04T06:35:13;2.90;;;2.33;;
46318;SDS011;32042;50.916;2.926;2023-06-04T06:37:39;4.50;;;2.77;;
46318;SDS011;32042;50.916;2.926;2023-06-04T06:40:07;7.53;;;2.73;;
46318;SDS011;32042;50.916;2.926;2023-06-04T06:42:33;3.43;;;2.90;;
46318;SDS011;32042;50.916;2.926;2023-06-04T06:44:59;2.77;;;2.57;;
46318;SDS011;32042;50.916;2.926;2023-06-04T06:47:25;6.57;;;3.23;;
46318;SDS011;32042;50.916;2.926;2023-06-04T06:49:50;4.00;;;2.58;;
46318;SDS011;32042;50.916;2.926;2023-06-04T06:52:16;3.05;;;2.60;;
46318;SDS011;32042;50.916;2.926;2023-06-04T06:54:44;3.15;;;2.10;;
46318;SDS011;32042;50.916;2.926;2023-06-04T06:57:11;3.92;;;2.42;;
46318;SDS011;32042;50.916;2.926;2023-06-04T06:59:36;4.03;;;2.85;;
46318;SDS011;32042;50.916;2.926;2023-06-04T07:02:02;5.35;;;3.42;;
46318;SDS011;32042;50.916;2.926;2023-06-04T07:04:28;4.47;;;2.35;;
46318;SDS011;32042;50.916;2.926;2023-06-04T07:06:54;3.72;;;2.70;;
46318;SDS011;32042;50.916;2.926;2023-06-04T07:09:19;3.30;;;2.67;;
46318;SDS011;32042;50.916;2.926;2023-06-04T07:11:45;3.13;;;2.40;;
46318;SDS011;32042;50.916;2.926;2023-06-04T07:14:11;3.67;;;2.28;;
46318;SDS011;32042;50.916;2.926;2023-06-04T07:16:37;2.50;;;2.30;;
46318;SDS011;32042;50.916;2.926;2023-06-04T07:19:02;2.88;;;2.15;;
46318;SDS011;32042;50.916;2.926;2023-06-04T07:21:28;3.78;;;2.17;;
46318;SDS011;32042;50.916;2.926;2023-06-04T07:23:54;2.85;;;2.30;;
46318;SDS011;32042;50.916;2.926;2023-06-04T07:26:19;2.30;;;2.10;;
46318;SDS011;32042;50.916;2.926;2023-06-04T07:28:45;1.98;;;1.85;;
46318;SDS011;32042;50.916;2.926;2023-06-04T07:31:14;2.08;;;1.77;;
46318;SDS011;32042;50.916;2.926;2023-06-04T07:33:40;3.65;;;2.10;;
46318;SDS011;32042;50.916;2.926;2023-06-04T07:36:12;3.95;;;2.50;;
46318;SDS011;32042;50.916;2.926;2023-06-04T07:38:38;2.97;;;2.00;;
46318;SDS011;32042;50.916;2.926;2023-06-04T07:41:04;2.83;;;2.38;;
46318;SDS011;32042;50.916;2.926;2023-06-04T07:43:30;3.65;;;2.10;;
46318;SDS011;32042;50.916;2.926;2023-06-04T07:45:55;3.65;;;1.95;;
46318;SDS011;32042;50.916;2.926;2023-06-04T07:48:21;2.78;;;1.85;;
46318;SDS011;32042;50.916;2.926;2023-06-04T07:50:47;3.00;;;2.15;;
46318;SDS011;32042;50.916;2.926;2023-06-04T07:53:13;3.78;;;2.15;;
46318;SDS011;32042;50.916;2.926;2023-06-04T07:55:38;5.05;;;1.80;;
46318;SDS011;32042;50.916;2.926;2023-06-04T07:58:04;3.78;;;1.92;;
46318;SDS011;32042;50.916;2.926;2023-06-04T08:00:30;3.28;;;2.30;;
46318;SDS011;32042;50.916;2.926;2023-06-04T08:02:56;2.83;;;2.05;;
46318;SDS011;32042;50.916;2.926;2023-06-04T08:05:22;1.80;;;1.63;;
46318;SDS011;32042;50.916;2.926;2023-06-04T08:07:48;1.63;;;1.40;;
46318;SDS011;32042;50.916;2.926;2023-06-04T08:10:13;1.60;;;1.50;;
46318;SDS011;32042;50.916;2.926;2023-06-04T08:12:39;2.30;;;1.60;;
46318;SDS011;32042;50.916;2.926;2023-06-04T08:15:05;1.60;;;1.50;;
46318;SDS011;32042;50.916;2.926;2023-06-04T08:17:33;1.67;;;1.58;;
46318;SDS011;32042;50.916;2.926;2023-06-04T08:19:59;2.15;;;1.42;;
46318;SDS011;32042;50.916;2.926;2023-06-04T08:22:25;3.28;;;1.55;;
46318;SDS011;32042;50.916;2.926;2023-06-04T08:24:52;3.42;;;1.70;;
46318;SDS011;32042;50.916;2.926;2023-06-04T08:27:18;2.20;;;1.02;;
46318;SDS011;32042;50.916;2.926;2023-06-04T08:29:43;1.63;;;1.20;;
46318;SDS011;32042;50.916;2.926;2023-06-04T08:32:09;2.75;;;1.20;;
46318;SDS011;32042;50.916;2.926;2023-06-04T08:34:35;1.88;;;1.30;;
46318;SDS011;32042;50.916;2.926;2023-06-04T08:37:01;1.67;;;1.30;;
46318;SDS011;32042;50.916;2.926;2023-06-04T08:39:27;1.40;;;1.17;;
46318;SDS011;32042;50.916;2.926;2023-06-04T08:41:54;2.38;;;1.02;;
46318;SDS011;32042;50.916;2.926;2023-06-04T08:44:27;1.27;;;1.00;;
46318;SDS011;32042;50.916;2.926;2023-06-04T08:46:54;4.05;;;1.13;;
46318;SDS011;32042;50.916;2.926;2023-06-04T08:49:30;2.63;;;1.10;;
46318;SDS011;32042;50.916;2.926;2023-06-04T08:52:00;2.25;;;1.10;;
46318;SDS011;32042;50.916;2.926;2023-06-04T08:54:26;1.88;;;1.30;;
46318;SDS011;32042;50.916;2.926;2023-06-04T08:56:52;0.80;;;0.80;;
46318;SDS011;32042;50.916;2.926;2023-06-04T08:59:20;3.45;;;1.25;;
46318;SDS011;32042;50.916;2.926;2023-06-04T09:01:47;4.95;;;1.38;;
46318;SDS011;32042;50.916;2.926;2023-06-04T09:04:13;3.53;;;0.95;;
46318;SDS011;32042;50.916;2.926;2023-06-04T09:06:39;2.72;;;1.02;;
46318;SDS011;32042;50.916;2.926;2023-06-04T09:09:08;3.30;;;1.00;;
46318;SDS011;32042;50.916;2.926;2023-06-04T09:11:36;1.60;;;1.00;;
46318;SDS011;32042;50.916;2.926;2023-06-04T09:14:09;1.98;;;1.02;;
46318;SDS011;32042;50.916;2.926;2023-06-04T09:16:46;1.17;;;1.08;;
46318;SDS011;32042;50.916;2.926;2023-06-04T09:19:14;1.80;;;0.95;;
46318;SDS011;32042;50.916;2.926;2023-06-04T09:22:02;1.83;;;1.23;;
46318;SDS011;32042;50.916;2.926;2023-06-04T09:24:46;3.70;;;1.20;;
46318;SDS011;32042;50.916;2.926;2023-06-04T09:27:18;1.25;;;1.13;;
46318;SDS011;32042;50.916;2.926;2023-06-04T09:29:51;2.65;;;0.90;;
46318;SDS011;32042;50.916;2.926;2023-06-04T09:32:24;1.17;;;1.05;;
46318;SDS011;32042;50.916;2.926;2023-06-04T09:34:52;1.45;;;1.08;;
46318;SDS011;32042;50.916;2.926;2023-06-04T09:37:32;0.82;;;0.82;;
46318;SDS011;32042;50.916;2.926;2023-06-04T09:39:58;1.83;;;0.98;;
46318;SDS011;32042;50.916;2.926;2023-06-04T09:42:23;3.78;;;1.48;;
46318;SDS011;32042;50.916;2.926;2023-06-04T09:44:49;2.83;;;1.10;;
46318;SDS011;32042;50.916;2.926;2023-06-04T09:47:15;1.55;;;1.33;;
46318;SDS011;32042;50.916;2.926;2023-06-04T09:49:41;1.45;;;1.23;;
46318;SDS011;32042;50.916;2.926;2023-06-04T09:52:07;1.83;;;1.13;;
46318;SDS011;32042;50.916;2.926;2023-06-04T09:54:36;0.98;;;0.77;;
46318;SDS011;32042;50.916;2.926;2023-06-04T09:57:03;5.75;;;1.20;;
46318;SDS011;32042;50.916;2.926;2023-06-04T09:59:31;2.58;;;1.00;;
46318;SDS011;32042;50.916;2.926;2023-06-04T10:02:01;5.13;;;1.40;;
46318;SDS011;32042;50.916;2.926;2023-06-04T10:04:29;1.30;;;1.10;;
46318;SDS011;32042;50.916;2.926;2023-06-04T10:06:55;0.90;;;0.90;;
46318;SDS011;32042;50.916;2.926;2023-06-04T10:09:21;1.20;;;0.85;;
46318;SDS011;32042;50.916;2.926;2023-06-04T10:11:53;3.20;;;1.00;;
46318;SDS011;32042;50.916;2.926;2023-06-04T10:14:23;2.08;;;0.93;;
46318;SDS011;32042;50.916;2.926;2023-06-04T10:16:58;2.10;;;1.05;;
46318;SDS011;32042;50.916;2.926;2023-06-04T10:19:25;2.33;;;1.00;;
46318;SDS011;32042;50.916;2.926;2023-06-04T10:21:52;1.13;;;0.93;;
46318;SDS011;32042;50.916;2.926;2023-06-04T10:24:18;1.63;;;0.90;;
46318;SDS011;32042;50.916;2.926;2023-06-04T10:26:45;3.90;;;1.42;;
46318;SDS011;32042;50.916;2.926;2023-06-04T10:29:13;1.20;;;1.10;;
46318;SDS011;32042;50.916;2.926;2023-06-04T10:31:39;1.35;;;1.25;;
46318;SDS011;32042;50.916;2.926;2023-06-04T10:34:06;2.22;;;1.33;;
46318;SDS011;32042;50.916;2.926;2023-06-04T10:36:41;1.85;;;0.93;;
46318;SDS011;32042;50.916;2.926;2023-06-04T10:39:08;2.10;;;0.88;;
46318;SDS011;32042;50.916;2.926;2023-06-04T10:41:35;3.25;;;1.13;;
46318;SDS011;32042;50.916;2.926;2023-06-04T10:44:01;3.10;;;1.20;;
46318;SDS011;32042;50.916;2.926;2023-06-04T10:46:36;3.35;;;1.60;;
46318;SDS011;32042;50.916;2.926;2023-06-04T10:49:04;2.15;;;1.20;;
46318;SDS011;32042;50.916;2.926;2023-06-04T10:51:30;1.55;;;1.30;;
46318;SDS011;32042;50.916;2.926;2023-06-04T10:53:58;1.85;;;1.00;;
46318;SDS011;32042;50.916;2.926;2023-06-04T10:56:27;1.65;;;1.10;;
46318;SDS011;32042;50.916;2.926;2023-06-04T10:59:15;2.63;;;1.10;;
46318;SDS011;32042;50.916;2.926;2023-06-04T11:01:42;1.75;;;1.25;;
46318;SDS011;32042;50.916;2.926;2023-06-04T11:04:25;1.67;;;1.23;;
46318;SDS011;32042;50.916;2.926;2023-06-04T11:07:03;3.10;;;1.20;;
46318;SDS011;32042;50.916;2.926;2023-06-04T11:09:34;3.42;;;0.90;;
46318;SDS011;32042;50.916;2.926;2023-06-04T11:12:00;3.33;;;1.30;;
46318;SDS011;32042;50.916;2.926;2023-06-04T11:14:27;3.10;;;1.50;;
46318;SDS011;32042;50.916;2.926;2023-06-04T11:16:52;2.45;;;1.20;;
46318;SDS011;32042;50.916;2.926;2023-06-04T11:19:18;4.68;;;1.35;;
46318;SDS011;32042;50.916;2.926;2023-06-04T11:21:45;2.13;;;1.33;;
46318;SDS011;32042;50.916;2.926;2023-06-04T11:24:14;1.75;;;1.10;;
46318;SDS011;32042;50.916;2.926;2023-06-04T11:26:40;6.45;;;1.10;;
46318;SDS011;32042;50.916;2.926;2023-06-04T11:29:07;2.08;;;1.88;;
46318;SDS011;32042;50.916;2.926;2023-06-04T11:31:43;2.80;;;1.23;;
46318;SDS011;32042;50.916;2.926;2023-06-04T11:34:10;1.60;;;1.10;;
46318;SDS011;32042;50.916;2.926;2023-06-04T11:36:46;4.13;;;1.10;;
46318;SDS011;32042;50.916;2.926;2023-06-04T11:39:14;1.88;;;1.00;;
46318;SDS011;32042;50.916;2.926;2023-06-04T11:41:40;1.38;;;1.20;;
46318;SDS011;32042;50.916;2.926;2023-06-04T11:44:07;1.83;;;1.10;;
46318;SDS011;32042;50.916;2.926;2023-06-04T11:46:34;2.05;;;1.25;;
46318;SDS011;32042;50.916;2.926;2023-06-04T11:49:01;1.83;;;0.90;;
46318;SDS011;32042;50.916;2.926;2023-06-04T11:51:27;1.15;;;0.90;;
46318;SDS011;32042;50.916;2.926;2023-06-04T11:53:54;1.35;;;1.25;;
46318;SDS011;32042;50.916;2.926;2023-06-04T11:56:20;0.95;;;0.93;;
46318;SDS011;32042;50.916;2.926;2023-06-04T11:58:46;2.15;;;0.95;;
46318;SDS011;32042;50.916;2.926;2023-06-04T12:01:12;1.50;;;1.08;;
46318;SDS011;32042;50.916;2.926;2023-06-04T12:03:39;2.05;;;1.08;;
46318;SDS011;32042;50.916;2.926;2023-06-04T12:06:13;1.30;;;1.20;;
46318;SDS011;32042;50.916;2.926;2023-06-04T12:08:54;1.33;;;1.00;;
46318;SDS011;32042;50.916;2.926;2023-06-04T12:13:57;5.28;;;1.23;;
46318;SDS011;32042;50.916;2.926;2023-06-04T12:16:26;6.72;;;1.25;;
46318;SDS011;32042;50.916;2.926;2023-06-04T12:18:52;2.90;;;1.08;;
46318;SDS011;32042;50.916;2.926;2023-06-04T12:21:36;1.88;;;1.00;;
46318;SDS011;32042;50.916;2.926;2023-06-04T12:26:38;1.73;;;1.10;;
46318;SDS011;32042;50.916;2.926;2023-06-04T12:29:11;3.60;;;1.10;;
46318;SDS011;32042;50.916;2.926;2023-06-04T12:31:39;2.33;;;0.95;;
46318;SDS011;32042;50.916;2.926;2023-06-04T12:34:06;2.13;;;1.00;;
46318;SDS011;32042;50.916;2.926;2023-06-04T12:36:32;3.42;;;1.45;;
46318;SDS011;32042;50.916;2.926;2023-06-04T12:38:59;1.70;;;1.30;;
46318;SDS011;32042;50.916;2.926;2023-06-04T12:41:27;4.85;;;1.35;;
46318;SDS011;32042;50.916;2.926;2023-06-04T12:43:53;1.88;;;1.40;;
46318;SDS011;32042;50.916;2.926;2023-06-04T12:46:19;1.92;;;1.25;;
46318;SDS011;32042;50.916;2.926;2023-06-04T12:48:45;1.35;;;0.90;;
46318;SDS011;32042;50.916;2.926;2023-06-04T12:51:10;1.10;;;1.00;;
46318;SDS011;32042;50.916;2.926;2023-06-04T12:53:40;5.00;;;1.63;;
46318;SDS011;32042;50.916;2.926;2023-06-04T12:56:06;5.85;;;1.98;;
46318;SDS011;32042;50.916;2.926;2023-06-04T12:58:32;7.38;;;2.03;;
46318;SDS011;32042;50.916;2.926;2023-06-04T13:00:58;5.07;;;2.00;;
46318;SDS011;32042;50.916;2.926;2023-06-04T13:03:25;6.60;;;2.30;;
46318;SDS011;32042;50.916;2.926;2023-06-04T13:05:51;5.43;;;2.40;;
46318;SDS011;32042;50.916;2.926;2023-06-04T13:08:19;5.38;;;2.33;;
46318;SDS011;32042;50.916;2.926;2023-06-04T13:10:48;5.13;;;2.25;;
46318;SDS011;32042;50.916;2.926;2023-06-04T13:13:17;9.57;;;3.85;;
46318;SDS011;32042;50.916;2.926;2023-06-04T13:15:44;4.53;;;1.90;;
46318;SDS011;32042;50.916;2.926;2023-06-04T13:18:10;8.25;;;2.40;;
46318;SDS011;32042;50.916;2.926;2023-06-04T13:20:36;7.25;;;2.60;;
46318;SDS011;32042;50.916;2.926;2023-06-04T13:23:02;6.97;;;3.30;;
46318;SDS011;32042;50.916;2.926;2023-06-04T13:25:28;8.00;;;2.95;;
46318;SDS011;32042;50.916;2.926;2023-06-04T13:27:55;8.40;;;2.95;;
46318;SDS011;32042;50.916;2.926;2023-06-04T13:30:21;6.40;;;2.58;;
46318;SDS011;32042;50.916;2.926;2023-06-04T13:32:48;9.30;;;3.33;;
46318;SDS011;32042;50.916;2.926;2023-06-04T13:35:14;4.55;;;2.28;;
46318;SDS011;32042;50.916;2.926;2023-06-04T13:37:40;6.05;;;1.90;;
46318;SDS011;32042;50.916;2.926;2023-06-04T13:40:06;8.77;;;2.53;;
46318;SDS011;32042;50.916;2.926;2023-06-04T13:42:32;6.90;;;2.28;;
46318;SDS011;32042;50.916;2.926;2023-06-04T13:44:58;7.55;;;2.67;;
46318;SDS011;32042;50.916;2.926;2023-06-04T13:47:24;12.02;;;2.63;;
46318;SDS011;32042;50.916;2.926;2023-06-04T13:49:50;4.72;;;2.50;;
46318;SDS011;32042;50.916;2.926;2023-06-04T13:52:16;7.22;;;2.95;;
46318;SDS011;32042;50.916;2.926;2023-06-04T13:54:42;4.78;;;3.40;;
46318;SDS011;32042;50.916;2.926;2023-06-04T13:57:08;6.85;;;2.50;;
46318;SDS011;32042;50.916;2.926;2023-06-04T13:59:37;13.10;;;2.22;;
46318;SDS011;32042;50.916;2.926;2023-06-04T14:02:03;4.40;;;2.15;;
46318;SDS011;32042;50.916;2.926;2023-06-04T14:04:29;7.10;;;2.78;;
46318;SDS011;32042;50.916;2.926;2023-06-04T14:06:55;5.85;;;2.90;;
46318;SDS011;32042;50.916;2.926;2023-06-04T14:09:21;4.50;;;2.78;;
46318;SDS011;32042;50.916;2.926;2023-06-04T14:11:47;4.95;;;2.25;;
46318;SDS011;32042;50.916;2.926;2023-06-04T14:14:16;9.88;;;3.55;;
46318;SDS011;32042;50.916;2.926;2023-06-04T14:16:43;8.25;;;2.33;;
46318;SDS011;32042;50.916;2.926;2023-06-04T14:19:09;8.00;;;2.70;;
46318;SDS011;32042;50.916;2.926;2023-06-04T14:21:35;5.80;;;2.30;;
46318;SDS011;32042;50.916;2.926;2023-06-04T14:24:01;5.50;;;2.70;;
46318;SDS011;32042;50.916;2.926;2023-06-04T14:26:27;7.05;;;2.42;;
46318;SDS011;32042;50.916;2.926;2023-06-04T14:28:54;6.90;;;2.38;;
46318;SDS011;32042;50.916;2.926;2023-06-04T14:31:20;5.10;;;2.50;;
46318;SDS011;32042;50.916;2.926;2023-06-04T14:33:46;7.60;;;2.78;;
46318;SDS011;32042;50.916;2.926;2023-06-04T14:36:11;4.68;;;2.30;;
46318;SDS011;32042;50.916;2.926;2023-06-04T14:38:37;5.63;;;2.20;;
46318;SDS011;32042;50.916;2.926;2023-06-04T14:41:03;8.90;;;2.70;;
46318;SDS011;32042;50.916;2.926;2023-06-04T14:43:29;7.35;;;2.17;;
46318;SDS011;32042;50.916;2.926;2023-06-04T14:45:55;5.85;;;2.42;;
46318;SDS011;32042;50.916;2.926;2023-06-04T14:48:21;7.57;;;2.72;;
46318;SDS011;32042;50.916;2.926;2023-06-04T14:50:48;11.77;;;2.38;;
46318;SDS011;32042;50.916;2.926;2023-06-04T14:53:14;6.05;;;2.72;;